createdAt,value
2023-05-16T00:02:21.064Z,26.98
2023-05-16T00:06:39.152Z,26.59
2023-05-16T00:10:57.193Z,27.18
2023-05-16T00:15:15.427Z,26.82
2023-05-16T00:19:33.526Z,27.63
2023-05-16T00:23:51.693Z,27.74
2023-05-16T00:27:14.213Z,26.84
2023-05-16T00:30:19.163Z,26.34
2023-05-16T00:33:23.492Z,26.25
2023-05-16T00:36:29.856Z,27.37
2023-05-16T00:39:33.891Z,27.80
2023-05-16T00:42:37.958Z,28.05
2023-05-16T00:45:41.927Z,27.41
2023-05-16T00:48:46.035Z,26.71
2023-05-16T00:51:50.824Z,27.59
2023-05-16T00:54:55.350Z,26.42
2023-05-16T00:58:00.725Z,26.23
2023-05-16T01:01:05.902Z,24.12
2023-05-16T01:04:10.244Z,24.38
2023-05-16T01:07:14.501Z,24.25
2023-05-16T01:10:18.760Z,23.88
2023-05-16T01:13:33.154Z,23.41
2023-05-16T01:17:11.095Z,23.16
2023-05-16T01:20:27.580Z,22.89
2023-05-16T01:24:01.507Z,22.40
2023-05-16T01:27:07.151Z,21.61
2023-05-16T01:30:19.926Z,21.22
2023-05-16T01:33:24.117Z,21.20
2023-05-16T01:36:34.581Z,20.74
2023-05-16T01:39:55.592Z,20.22
2023-05-16T01:43:05.892Z,20.19
2023-05-16T01:46:17.514Z,20.42
2023-05-16T01:49:47.778Z,20.12
2023-05-16T01:53:00.850Z,19.20
2023-05-16T01:56:06.624Z,19.81
2023-05-16T01:59:13.356Z,19.56
2023-05-16T02:02:20.327Z,19.55
2023-05-16T02:05:24.819Z,19.22
2023-05-16T02:08:30.238Z,19.24
2023-05-16T02:11:33.918Z,18.98
2023-05-16T02:14:38.013Z,18.99
2023-05-16T02:17:42.817Z,18.64
2023-05-16T02:20:46.802Z,18.87
2023-05-16T02:23:52.966Z,18.91
2023-05-16T02:26:56.945Z,18.80
2023-05-16T02:30:00.978Z,18.99
2023-05-16T02:33:09.009Z,19.34
2023-05-16T02:36:13.038Z,19.59
2023-05-16T02:39:19.697Z,19.47
2023-05-16T02:42:23.423Z,19.18
2023-05-16T02:45:27.993Z,19.40
2023-05-16T02:48:32.732Z,19.30
2023-05-16T02:51:37.372Z,18.89
2023-05-16T02:54:41.962Z,18.47
2023-05-16T02:57:46.736Z,18.55
2023-05-16T03:00:50.638Z,18.17
2023-05-16T03:03:54.915Z,17.99
2023-05-16T03:07:00.145Z,18.00
2023-05-16T03:10:05.001Z,17.83
2023-05-16T03:13:08.776Z,17.96
2023-05-16T03:16:13.058Z,17.55
2023-05-16T03:19:17.230Z,17.78
2023-05-16T03:22:21.449Z,17.78
2023-05-16T03:25:25.629Z,17.73
2023-05-16T03:28:29.779Z,17.53
2023-05-16T03:31:34.719Z,17.57
2023-05-16T03:34:39.242Z,17.54
2023-05-16T03:37:43.585Z,17.35
2023-05-16T03:40:47.557Z,17.17
2023-05-16T03:43:51.334Z,17.11
2023-05-16T03:46:56.859Z,17.21
2023-05-16T03:50:00.439Z,17.20
2023-05-16T03:53:05.744Z,17.24
2023-05-16T03:56:10.012Z,17.04
2023-05-16T03:59:14.408Z,17.09
2023-05-16T04:02:19.072Z,17.06
2023-05-16T04:05:23.225Z,16.98
2023-05-16T04:08:27.927Z,17.07
2023-05-16T04:11:31.829Z,17.02
2023-05-16T04:14:36.774Z,17.13
2023-05-16T04:17:41.047Z,16.86
2023-05-16T04:20:45.469Z,16.94
2023-05-16T04:23:49.667Z,16.99
2023-05-16T04:26:53.791Z,16.83
2023-05-16T04:29:57.965Z,16.84
2023-05-16T04:33:02.223Z,16.75
2023-05-16T04:36:06.886Z,16.61
2023-05-16T04:39:10.957Z,16.56
2023-05-16T04:42:14.814Z,16.69
2023-05-16T04:45:18.851Z,16.71
2023-05-16T04:48:23.024Z,16.45
2023-05-16T04:51:27.433Z,16.58
2023-05-16T04:54:31.620Z,16.51
2023-05-16T04:57:35.638Z,16.33
2023-05-16T05:00:40.647Z,16.25
2023-05-16T05:04:04.867Z,16.01
2023-05-16T05:07:12.109Z,16.21
2023-05-16T05:10:19.534Z,16.19
2023-05-16T05:13:24.911Z,16.18
2023-05-16T05:16:28.938Z,16.17
2023-05-16T05:19:32.935Z,16.01
2023-05-16T05:22:39.460Z,15.81
2023-05-16T05:25:48.898Z,15.97
2023-05-16T05:29:04.510Z,15.46
2023-05-16T05:32:09.359Z,15.38
2023-05-16T05:35:13.991Z,15.13
2023-05-16T05:38:17.844Z,14.75
2023-05-16T05:41:30.563Z,14.86
2023-05-16T05:44:38.578Z,14.69
2023-05-16T05:47:45.533Z,14.32
2023-05-16T05:50:49.704Z,14.36
2023-05-16T05:53:56.963Z,14.48
2023-05-16T05:57:04.269Z,14.37
2023-05-16T06:00:14.604Z,14.14
2023-05-16T06:03:18.740Z,13.84
2023-05-16T06:06:23.299Z,13.81
2023-05-16T06:09:29.686Z,13.76
2023-05-16T06:12:33.923Z,13.86
2023-05-16T06:15:38.105Z,14.18
2023-05-16T06:18:41.964Z,14.16
2023-05-16T06:21:48.945Z,14.05
2023-05-16T06:24:52.798Z,13.66
2023-05-16T06:27:56.925Z,14.09
2023-05-16T06:31:02.740Z,13.60
2023-05-16T06:34:08.042Z,13.55
2023-05-16T06:37:15.123Z,13.80
2023-05-16T06:40:21.407Z,13.84
2023-05-16T06:43:25.467Z,13.88
2023-05-16T06:46:34.225Z,13.86
2023-05-16T06:49:38.294Z,13.46
2023-05-16T06:52:43.096Z,13.53
2023-05-16T06:55:47.852Z,13.46
2023-05-16T06:58:59.407Z,13.49
2023-05-16T07:02:08.486Z,13.40
2023-05-16T07:05:13.191Z,13.31
2023-05-16T07:08:17.439Z,13.58
2023-05-16T07:11:22.875Z,13.65
2023-05-16T07:14:27.071Z,13.41
2023-05-16T07:17:34.320Z,13.21
2023-05-16T07:20:38.681Z,13.08
2023-05-16T07:23:42.679Z,13.21
2023-05-16T07:26:49.873Z,12.86
2023-05-16T07:29:54.743Z,13.15
2023-05-16T07:32:59.141Z,12.83
2023-05-16T07:36:15.525Z,12.77
2023-05-16T07:39:21.396Z,12.72
2023-05-16T07:42:26.209Z,12.75
2023-05-16T07:45:30.682Z,13.02
2023-05-16T07:48:35.571Z,13.08
2023-05-16T07:51:40.819Z,13.16
2023-05-16T07:54:50.719Z,12.83
2023-05-16T07:57:57.643Z,12.85
2023-05-16T08:01:01.952Z,13.14
2023-05-16T08:04:06.302Z,13.00
2023-05-16T08:07:14.289Z,13.07
2023-05-16T08:10:18.351Z,13.19
2023-05-16T08:13:22.986Z,12.88
2023-05-16T08:16:30.089Z,13.14
2023-05-16T08:19:36.771Z,13.29
2023-05-16T08:22:41.823Z,13.15
2023-05-16T08:25:48.119Z,13.15
2023-05-16T08:28:55.249Z,13.30
2023-05-16T08:32:00.273Z,13.11
2023-05-16T08:35:07.967Z,13.16
2023-05-16T08:38:12.308Z,13.16
2023-05-16T08:41:17.732Z,13.23
2023-05-16T08:44:27.767Z,13.45
2023-05-16T08:47:33.100Z,13.59
2023-05-16T08:50:43.923Z,13.54
2023-05-16T08:54:01.352Z,13.51
2023-05-16T08:57:14.093Z,13.62
2023-05-16T09:00:20.244Z,13.27
2023-05-16T09:03:26.193Z,13.39
2023-05-16T09:06:31.592Z,13.31
2023-05-16T09:09:35.418Z,13.29
2023-05-16T09:12:57.053Z,13.19
2023-05-16T09:16:20.506Z,13.16
2023-05-16T09:19:26.704Z,13.24
2023-05-16T09:22:30.677Z,13.13
2023-05-16T09:25:34.860Z,13.08
2023-05-16T09:28:45.172Z,13.32
2023-05-16T09:31:51.272Z,13.19
2023-05-16T09:34:59.726Z,12.94
2023-05-16T09:38:03.569Z,12.95
2023-05-16T09:41:07.862Z,13.07
2023-05-16T09:44:14.191Z,13.06
2023-05-16T09:47:23.403Z,13.14
2023-05-16T09:50:30.489Z,12.82
2023-05-16T09:53:34.936Z,12.60
2023-05-16T09:56:52.500Z,12.87
2023-05-16T09:59:56.685Z,12.97
2023-05-16T10:03:05.687Z,13.17
2023-05-16T10:06:13.413Z,12.69
2023-05-16T10:09:20.340Z,12.91
2023-05-16T10:12:32.977Z,12.96
2023-05-16T10:15:43.654Z,12.99
2023-05-16T10:18:48.953Z,12.99
2023-05-16T10:21:55.893Z,13.10
2023-05-16T10:25:13.917Z,13.14
2023-05-16T10:28:20.575Z,12.99
2023-05-16T10:31:27.415Z,13.00
2023-05-16T10:34:32.000Z,13.11
2023-05-16T10:37:37.752Z,13.17
2023-05-16T10:40:42.733Z,13.21
2023-05-16T10:44:00.796Z,13.10
2023-05-16T10:47:07.460Z,12.88
2023-05-16T10:50:11.895Z,12.95
2023-05-16T10:53:31.574Z,12.94
2023-05-16T10:56:39.168Z,12.98
2023-05-16T10:59:49.117Z,13.14
2023-05-16T11:02:53.386Z,13.00
2023-05-16T11:06:02.300Z,12.78
2023-05-16T11:09:12.541Z,12.60
2023-05-16T11:12:16.878Z,12.82
2023-05-16T11:15:32.483Z,12.50
2023-05-16T11:18:53.464Z,12.31
2023-05-16T11:22:19.040Z,11.38
2023-05-16T11:25:42.123Z,11.86
2023-05-16T11:28:51.203Z,12.36
2023-05-16T11:31:55.526Z,12.23
2023-05-16T11:34:59.620Z,12.25
2023-05-16T11:38:04.677Z,11.75
2023-05-16T11:41:17.421Z,12.52
2023-05-16T11:44:21.396Z,12.55
2023-05-16T11:47:26.152Z,12.60
2023-05-16T11:50:35.137Z,12.48
2023-05-16T11:53:39.479Z,12.27
2023-05-16T11:56:45.724Z,12.74
2023-05-16T11:59:54.322Z,12.53
2023-05-16T12:03:06.872Z,12.89
2023-05-16T12:06:11.110Z,12.81
2023-05-16T12:09:18.938Z,12.40
2023-05-16T12:12:23.462Z,12.57
2023-05-16T12:15:31.200Z,12.44
2023-05-16T12:18:41.937Z,12.44
2023-05-16T12:21:56.740Z,12.42
2023-05-16T12:25:01.304Z,12.07
2023-05-16T12:28:09.334Z,12.36
2023-05-16T12:31:31.032Z,12.38
2023-05-16T12:34:36.483Z,12.57
2023-05-16T12:37:52.513Z,12.55
2023-05-16T12:41:00.156Z,12.76
2023-05-16T12:44:18.107Z,12.82
2023-05-16T12:47:23.734Z,12.71
2023-05-16T12:50:28.214Z,12.86
2023-05-16T12:53:57.609Z,12.86
2023-05-16T12:57:11.177Z,12.83
2023-05-16T13:00:20.826Z,12.59
2023-05-16T13:03:26.002Z,12.68
2023-05-16T13:06:44.833Z,12.78
2023-05-16T13:09:57.640Z,12.59
2023-05-16T13:13:03.307Z,12.51
2023-05-16T13:16:16.832Z,12.59
2023-05-16T13:19:21.261Z,12.65
2023-05-16T13:22:28.575Z,12.79
2023-05-16T13:25:36.468Z,12.85
2023-05-16T13:28:41.689Z,12.75
2023-05-16T13:31:45.722Z,12.59
2023-05-16T13:34:51.885Z,12.50
2023-05-16T13:38:00.268Z,12.60
2023-05-16T13:41:04.251Z,12.62
2023-05-16T13:44:10.944Z,12.49
2023-05-16T13:47:15.865Z,12.52
2023-05-16T13:50:20.097Z,12.54
2023-05-16T13:53:24.323Z,12.48
2023-05-16T13:56:28.330Z,12.41
2023-05-16T13:59:56.800Z,12.26
2023-05-16T14:02:57.854Z,12.16
2023-05-16T14:06:02.828Z,12.03
2023-05-16T14:09:07.295Z,12.22
2023-05-16T14:12:11.573Z,12.35
2023-05-16T14:15:16.039Z,12.15
2023-05-16T14:18:20.175Z,12.10
2023-05-16T14:21:24.086Z,12.14
2023-05-16T14:24:28.364Z,12.23
2023-05-16T14:27:35.798Z,11.97
2023-05-16T14:30:40.678Z,12.15
2023-05-16T14:33:48.431Z,12.30
2023-05-16T14:36:52.452Z,12.39
2023-05-16T14:39:57.963Z,12.42
2023-05-16T14:43:04.798Z,12.34
2023-05-16T14:46:08.853Z,12.28
2023-05-16T14:49:16.784Z,12.22
2023-05-16T14:52:21.222Z,12.25
2023-05-16T14:55:25.425Z,12.37
2023-05-16T14:58:29.945Z,12.40
2023-05-16T15:01:34.116Z,12.43
2023-05-16T15:07:49.106Z,12.32
2023-05-16T15:10:53.245Z,12.52
2023-05-16T15:13:58.212Z,12.42
2023-05-16T15:17:09.168Z,12.25
2023-05-16T15:20:16.838Z,12.58
2023-05-16T15:23:21.012Z,12.78
2023-05-16T15:26:25.587Z,12.68
2023-05-16T15:29:29.592Z,12.63
2023-05-16T15:32:34.126Z,12.49
2023-05-16T15:35:38.384Z,12.48
2023-05-16T15:38:45.328Z,12.40
2023-05-16T15:42:05.726Z,12.65
2023-05-16T15:45:13.773Z,12.66
2023-05-16T15:48:17.713Z,12.59
2023-05-16T15:51:22.227Z,12.59
2023-05-16T15:54:26.297Z,12.48
2023-05-16T15:57:31.176Z,12.74
2023-05-16T16:00:36.026Z,12.63
2023-05-16T16:03:40.525Z,12.85
2023-05-16T16:06:44.782Z,12.61
2023-05-16T16:09:48.936Z,12.63
2023-05-16T16:13:06.193Z,12.50
2023-05-16T16:16:10.484Z,12.64
2023-05-16T16:19:14.875Z,12.55
2023-05-16T16:22:20.971Z,12.32
2023-05-16T16:25:27.206Z,12.53
2023-05-16T16:28:31.548Z,12.35
2023-05-16T16:31:35.870Z,12.42
2023-05-16T16:34:40.421Z,11.95
2023-05-16T16:37:51.626Z,12.47
2023-05-16T16:41:08.775Z,12.49
2023-05-16T16:44:13.113Z,12.44
2023-05-16T16:47:17.816Z,12.40
2023-05-16T16:50:22.229Z,12.18
2023-05-16T16:53:27.412Z,12.37
2023-05-16T16:56:31.551Z,12.34
2023-05-16T16:59:36.243Z,12.44
2023-05-16T17:02:40.940Z,12.43
2023-05-16T17:05:45.784Z,12.34
2023-05-16T17:08:50.441Z,12.24
2023-05-16T17:11:54.659Z,12.18
2023-05-16T17:14:58.989Z,12.12
2023-05-16T17:18:03.117Z,12.03
2023-05-16T17:21:09.356Z,12.01
2023-05-16T17:24:13.975Z,12.05
2023-05-16T17:27:18.875Z,12.00
2023-05-16T17:30:23.199Z,12.01
2023-05-16T17:33:27.573Z,11.97
2023-05-16T17:36:32.493Z,11.82
2023-05-16T17:39:40.580Z,11.86
2023-05-16T17:42:45.769Z,11.98
2023-05-16T17:45:50.084Z,12.11
2023-05-16T17:48:54.132Z,11.84
2023-05-16T17:51:59.009Z,12.02
2023-05-16T17:55:03.291Z,11.81
2023-05-16T17:58:10.601Z,11.94
2023-05-16T18:01:14.581Z,11.93
2023-05-16T18:04:21.823Z,12.04
2023-05-16T18:07:27.865Z,12.06
2023-05-16T18:10:51.060Z,11.97
2023-05-16T18:13:56.527Z,11.82
2023-05-16T18:17:00.516Z,11.89
2023-05-16T18:20:17.314Z,12.02
2023-05-16T18:23:22.266Z,11.88
2023-05-16T18:26:30.292Z,11.86
2023-05-16T18:29:35.209Z,11.96
2023-05-16T18:32:39.385Z,11.57
2023-05-16T18:35:43.729Z,11.86
2023-05-16T18:38:50.025Z,11.93
2023-05-16T18:41:54.623Z,12.03
2023-05-16T18:44:58.859Z,11.88
2023-05-16T18:48:03.077Z,11.90
2023-05-16T18:51:07.332Z,11.89
2023-05-16T18:54:11.385Z,11.93
2023-05-16T18:57:15.627Z,11.84
2023-05-16T19:00:21.054Z,11.60
2023-05-16T19:03:25.364Z,11.68
2023-05-16T19:06:31.974Z,11.75
2023-05-16T19:09:36.685Z,11.57
2023-05-16T19:12:41.005Z,11.46
2023-05-16T19:15:45.040Z,11.48
2023-05-16T19:18:49.073Z,11.39
2023-05-16T19:21:53.191Z,11.24
2023-05-16T19:24:57.297Z,11.17
2023-05-16T19:28:01.276Z,11.14
2023-05-16T19:31:09.010Z,11.25
2023-05-16T19:34:14.435Z,11.36
2023-05-16T19:37:18.619Z,11.24
2023-05-16T19:40:22.703Z,11.15
2023-05-16T19:43:32.578Z,11.00
2023-05-16T19:46:39.220Z,10.94
2023-05-16T19:49:43.381Z,10.93
2023-05-16T19:52:47.378Z,10.97
2023-05-16T19:55:51.587Z,10.95
2023-05-16T19:58:55.461Z,11.10
2023-05-16T20:02:05.174Z,11.21
2023-05-16T20:05:09.554Z,11.26
2023-05-16T20:08:22.857Z,11.48
2023-05-16T20:11:29.711Z,11.62
2023-05-16T20:14:37.164Z,11.27
2023-05-16T20:17:42.194Z,11.71
2023-05-16T20:20:48.864Z,11.81
2023-05-16T20:23:58.091Z,11.70
2023-05-16T20:27:02.488Z,11.81
2023-05-16T20:30:10.092Z,11.96
2023-05-16T20:33:14.642Z,11.93
2023-05-16T20:36:18.634Z,11.85
2023-05-16T20:39:30.006Z,11.73
2023-05-16T20:42:37.077Z,11.86
2023-05-16T20:45:43.816Z,12.00
2023-05-16T20:48:48.372Z,12.14
2023-05-16T20:51:52.376Z,12.32
2023-05-16T20:54:58.958Z,12.51
2023-05-16T20:58:02.896Z,12.69
2023-05-16T21:01:06.897Z,12.80
2023-05-16T21:04:11.236Z,12.83
2023-05-16T21:10:38.705Z,12.79
2023-05-16T21:13:42.746Z,12.87
2023-05-16T21:16:46.974Z,12.20
2023-05-16T21:19:51.348Z,13.10
2023-05-16T21:22:55.122Z,13.16
2023-05-16T21:25:59.187Z,13.31
2023-05-16T21:29:06.217Z,13.35
2023-05-16T21:32:11.200Z,13.00
2023-05-16T21:35:15.946Z,13.18
2023-05-16T21:38:19.949Z,13.13
2023-05-16T21:41:24.219Z,13.29
2023-05-16T21:44:28.425Z,13.52
2023-05-16T21:47:32.976Z,13.83
2023-05-16T21:50:52.302Z,12.85
2023-05-16T21:54:03.983Z,12.61
2023-05-16T21:57:08.216Z,13.93
2023-05-16T22:00:13.300Z,13.81
2023-05-16T22:03:20.315Z,13.66
2023-05-16T22:06:25.429Z,13.75
2023-05-16T22:09:29.411Z,13.87
2023-05-16T22:12:36.555Z,14.35
2023-05-16T22:15:46.693Z,15.13
2023-05-16T22:18:56.392Z,15.65
2023-05-16T22:22:00.433Z,15.90
2023-05-16T22:25:08.372Z,16.40
2023-05-16T22:28:12.355Z,17.57
2023-05-16T22:31:16.488Z,18.38
2023-05-16T22:34:23.673Z,18.88
2023-05-16T22:37:27.760Z,19.07
2023-05-16T22:40:31.836Z,18.08
2023-05-16T22:43:35.710Z,17.10
2023-05-16T22:46:39.811Z,16.93
2023-05-16T22:49:43.938Z,16.68
2023-05-16T22:52:56.965Z,17.56
2023-05-16T22:56:00.861Z,19.89
2023-05-16T22:59:04.940Z,21.19
2023-05-16T23:02:08.756Z,20.85
2023-05-16T23:05:12.868Z,20.97
2023-05-16T23:08:21.731Z,21.59
2023-05-16T23:11:25.890Z,21.50
2023-05-16T23:14:29.915Z,21.20
2023-05-16T23:17:34.057Z,20.13
2023-05-16T23:20:40.999Z,19.82
2023-05-16T23:23:44.979Z,19.69
2023-05-16T23:26:49.095Z,19.39
2023-05-16T23:29:53.897Z,19.56
2023-05-16T23:32:58.114Z,19.61
2023-05-16T23:36:06.902Z,20.59
2023-05-16T23:39:23.431Z,19.35
2023-05-16T23:42:28.106Z,18.57
2023-05-16T23:45:32.936Z,19.05
2023-05-16T23:48:40.721Z,19.52
2023-05-16T23:54:57.431Z,19.09
2023-05-16T23:58:01.794Z,20.56
